Time;durP1;ratioP1;P1;durP2;ratioP2;P2;SDS_P1;SDS_P2;PMS_P1;PMS_P2;Temp;Humidity;BMP_temperature;BMP_pressure;BME280_temperature;BME280_humidity;BME280_pressure;Samples;Min_cycle;Max_cycle;Signal;HPM_P1;HPM_P2
2022/01/07 00:01:53;;;;;;;;;;;3.60;99.90;;;;;;5059318;28;19993;-61
2022/01/07 00:04:19;;;;;;;;;;;3.60;99.90;;;;;;5064038;28;19916;-59
2022/01/07 00:06:44;;;;;;;;;;;3.60;99.90;;;;;;5050656;28;19948;-61
2022/01/07 00:09:10;;;;;;;;;;;3.60;99.90;;;;;;5061420;28;19924;-61
2022/01/07 00:11:35;;;;;;;;;;;3.60;99.90;;;;;;5047097;28;20015;-60
2022/01/07 00:14:01;;;;;;;;;;;3.70;99.90;;;;;;5061155;28;19959;-61
2022/01/07 00:16:27;;;;;;;;;;;3.80;99.90;;;;;;5060949;28;19999;-60
2022/01/07 00:18:52;;;;;;;;;;;3.70;99.90;;;;;;5061695;28;22237;-60
2022/01/07 00:21:18;;;;;;;;;;;3.70;99.90;;;;;;5061739;28;19916;-60
2022/01/07 00:23:43;;;;;;;;;;;3.70;99.90;;;;;;5061482;28;19917;-60
2022/01/07 00:26:09;;;;;;;;;;;3.70;99.90;;;;;;5060865;28;19974;-60
2022/01/07 00:28:34;;;;;;;;;;;3.60;99.90;;;;;;5042037;28;19942;-60
2022/01/07 00:31:00;;;;;;;;;;;3.70;99.90;;;;;;5061849;28;20331;-59
2022/01/07 00:33:25;;;;;;;;;;;3.70;99.90;;;;;;5060368;28;20359;-61
2022/01/07 00:35:52;;;;;;;;;;;3.80;99.90;;;;;;5059397;28;20042;-60
2022/01/07 00:38:17;;;;;;;;;;;3.70;99.90;;;;;;5045178;28;20326;-59
2022/01/07 00:40:43;;;;;;;;;;;3.80;99.90;;;;;;5058591;28;20053;-60
2022/01/07 00:43:08;;;;;;;;;;;3.70;99.90;;;;;;5057575;28;19924;-61
2022/01/07 00:45:34;;;;;;;;;;;3.70;99.90;;;;;;5047754;28;19916;-59
2022/01/07 00:48:00;;;;;;;;;;;3.80;99.90;;;;;;5057603;28;20116;-59
2022/01/07 00:50:27;;;;;;;;;;;3.70;99.90;;;;;;5057147;28;20257;-61
2022/01/07 00:52:53;;;;;;;;;;;3.70;99.90;;;;;;5057760;28;21396;-61
2022/01/07 00:55:18;;;;;;;;;;;3.80;99.90;;;;;;5057141;28;19951;-60
2022/01/07 00:57:44;;;;;;;;;;;3.80;99.90;;;;;;5057597;28;19989;-60
2022/01/07 01:00:11;;;;;;;;;;;3.80;99.90;;;;;;5056756;28;19948;-61
2022/01/07 01:02:37;;;;;;;;;;;3.80;99.90;;;;;;5057302;28;19913;-60
2022/01/07 01:05:06;;;;;;;;;;;3.80;99.90;;;;;;5057197;28;19966;-60
2022/01/07 01:07:31;;;;;;;;;;;3.80;99.90;;;;;;5058157;28;20499;-61
2022/01/07 01:09:57;;;;;;;;;;;3.90;99.90;;;;;;5056385;28;19925;-61
2022/01/07 01:12:23;;;;;;;;;;;3.80;99.90;;;;;;5057260;28;19956;-59
2022/01/07 01:14:48;;;;;;;;;;;3.80;99.90;;;;;;5043505;28;19956;-60
2022/01/07 01:17:14;;;;;;;;;;;3.80;99.90;;;;;;5055469;28;19989;-59
2022/01/07 01:19:40;;;;;;;;;;;3.90;99.90;;;;;;5055519;28;19921;-60
2022/01/07 01:22:05;;;;;;;;;;;3.90;99.90;;;;;;5057441;28;20279;-61
2022/01/07 01:24:31;;;;;;;;;;;4.00;99.90;;;;;;5058605;28;19917;-60
2022/01/07 01:26:56;;;;;;;;;;;4.00;99.90;;;;;;5058341;28;19927;-59
2022/01/07 01:29:22;;;;;;;;;;;3.90;99.90;;;;;;5057222;28;19932;-61
2022/01/07 01:31:48;;;;;;;;;;;3.90;99.90;;;;;;5043859;28;20359;-61
2022/01/07 01:34:14;;;;;;;;;;;3.90;99.90;;;;;;5056522;28;20493;-60
2022/01/07 01:36:40;;;;;;;;;;;4.10;99.90;;;;;;5057910;28;19916;-60
2022/01/07 01:39:05;;;;;;;;;;;4.00;99.90;;;;;;5057608;28;19920;-60
2022/01/07 01:41:31;;;;;;;;;;;4.00;99.90;;;;;;5047597;28;19916;-60
2022/01/07 01:43:57;;;;;;;;;;;4.00;99.90;;;;;;5056574;28;20750;-60
2022/01/07 01:46:22;;;;;;;;;;;4.00;99.90;;;;;;5056742;28;19925;-60
2022/01/07 01:48:48;;;;;;;;;;;4.00;99.90;;;;;;5056058;28;20408;-61
2022/01/07 01:51:14;;;;;;;;;;;3.90;99.90;;;;;;5057500;28;20360;-60
2022/01/07 01:53:40;;;;;;;;;;;3.90;99.90;;;;;;5055904;28;19955;-61
2022/01/07 01:56:05;;;;;;;;;;;3.90;99.90;;;;;;5054883;28;19999;-61
2022/01/07 01:58:31;;;;;;;;;;;3.90;99.90;;;;;;5060295;28;19924;-60
2022/01/07 02:00:57;;;;;;;;;;;3.90;99.90;;;;;;5061115;28;20347;-59
2022/01/07 02:03:23;;;;;;;;;;;3.80;99.90;;;;;;5062385;28;20003;-59
2022/01/07 02:05:48;;;;;;;;;;;3.80;99.90;;;;;;5066346;28;20043;-60
2022/01/07 02:08:14;;;;;;;;;;;3.80;99.90;;;;;;5063884;28;19916;-60
2022/01/07 02:10:40;;;;;;;;;;;3.80;99.90;;;;;;5049837;28;19920;-59
2022/01/07 02:13:05;;;;;;;;;;;3.80;99.90;;;;;;5059583;28;20386;-59
2022/01/07 02:15:31;;;;;;;;;;;3.80;99.90;;;;;;5059764;28;19927;-59
2022/01/07 02:17:57;;;;;;;;;;;3.60;99.90;;;;;;5058898;28;20007;-59
2022/01/07 02:20:25;;;;;;;;;;;3.60;99.90;;;;;;5061469;28;20404;-59
2022/01/07 02:22:51;;;;;;;;;;;3.70;99.90;;;;;;5058485;28;20038;-59
2022/01/07 02:25:17;;;;;;;;;;;3.70;99.90;;;;;;5060038;28;20280;-59
2022/01/07 02:27:43;;;;;;;;;;;3.70;99.90;;;;;;5059553;28;19924;-59
2022/01/07 02:30:10;;;;;;;;;;;3.70;99.90;;;;;;5060038;28;19924;-60
2022/01/07 02:32:36;;;;;;;;;;;3.70;99.90;;;;;;5059903;28;19927;-59
2022/01/07 02:35:02;;;;;;;;;;;3.60;99.90;;;;;;5060548;28;19925;-59
2022/01/07 02:37:27;;;;;;;;;;;3.60;99.90;;;;;;5059626;28;19917;-59
2022/01/07 02:39:54;;;;;;;;;;;3.60;99.90;;;;;;5061000;28;20017;-59
2022/01/07 02:42:19;;;;;;;;;;;3.60;99.90;;;;;;5060282;28;19916;-60
2022/01/07 02:44:45;;;;;;;;;;;3.60;99.90;;;;;;5060457;28;19924;-60
2022/01/07 02:47:10;;;;;;;;;;;3.60;99.90;;;;;;5059736;28;19947;-60
2022/01/07 02:49:36;;;;;;;;;;;3.50;99.90;;;;;;5059382;28;19927;-59
2022/01/07 02:52:01;;;;;;;;;;;3.60;99.90;;;;;;5058813;28;20350;-60
2022/01/07 02:54:27;;;;;;;;;;;3.50;99.90;;;;;;5060306;28;19916;-59
2022/01/07 02:56:52;;;;;;;;;;;3.50;99.90;;;;;;5059209;28;20703;-60
2022/01/07 02:59:18;;;;;;;;;;;3.40;99.90;;;;;;5058265;28;19925;-60
2022/01/07 03:01:44;;;;;;;;;;;3.50;99.90;;;;;;5058065;28;19940;-60
2022/01/07 03:04:09;;;;;;;;;;;3.50;99.90;;;;;;5046991;28;20280;-61
2022/01/07 03:06:36;;;;;;;;;;;3.50;99.90;;;;;;5058673;28;20571;-60
2022/01/07 03:09:02;;;;;;;;;;;3.60;99.90;;;;;;5060111;28;20313;-59
2022/01/07 03:11:27;;;;;;;;;;;3.50;99.90;;;;;;5058231;28;19924;-59
2022/01/07 03:13:53;;;;;;;;;;;3.50;99.90;;;;;;5028856;28;20509;-60
2022/01/07 03:16:18;;;;;;;;;;;3.60;99.90;;;;;;5058528;28;19921;-59
2022/01/07 03:18:44;;;;;;;;;;;3.60;99.90;;;;;;5057305;28;19923;-59
2022/01/07 03:21:09;;;;;;;;;;;3.60;99.90;;;;;;5059185;28;19919;-59
2022/01/07 03:23:36;;;;;;;;;;;3.60;99.90;;;;;;5059860;28;19919;-60
2022/01/07 03:26:02;;;;;;;;;;;3.70;99.90;;;;;;5059389;28;19920;-60
2022/01/07 03:28:27;;;;;;;;;;;3.70;99.90;;;;;;5059003;28;21196;-60
2022/01/07 03:30:53;;;;;;;;;;;3.60;99.90;;;;;;5058871;28;19928;-60
2022/01/07 03:33:19;;;;;;;;;;;3.60;99.90;;;;;;5057564;28;20382;-59
2022/01/07 03:35:45;;;;;;;;;;;3.60;99.90;;;;;;5058497;28;19921;-59
2022/01/07 03:38:11;;;;;;;;;;;3.60;99.90;;;;;;5058960;28;20015;-60
2022/01/07 03:40:37;;;;;;;;;;;3.70;99.90;;;;;;5047889;28;20015;-60
2022/01/07 03:43:03;;;;;;;;;;;3.70;99.90;;;;;;5060469;28;19999;-60
2022/01/07 03:45:28;;;;;;;;;;;3.70;99.90;;;;;;5058711;28;19917;-60
2022/01/07 03:47:54;;;;;;;;;;;3.70;99.90;;;;;;5057794;28;19917;-59
2022/01/07 03:50:21;;;;;;;;;;;3.80;99.90;;;;;;5058656;28;19920;-60
2022/01/07 03:52:48;;;;;;;;;;;4.00;99.90;;;;;;5059162;28;19913;-60
2022/01/07 03:55:15;;;;;;;;;;;3.90;99.90;;;;;;5058107;28;19924;-60
2022/01/07 03:57:41;;;;;;;;;;;4.00;99.90;;;;;;5057778;28;20423;-60
2022/01/07 04:00:07;;;;;;;;;;;3.90;99.90;;;;;;5056360;28;19917;-60
2022/01/07 04:02:33;;;;;;;;;;;3.90;99.90;;;;;;5058306;28;19916;-61
2022/01/07 04:04:58;;;;;;;;;;;3.90;99.90;;;;;;5058316;28;20290;-60
2022/01/07 04:07:25;;;;;;;;;;;4.00;99.90;;;;;;5045111;28;19923;-60
2022/01/07 04:09:50;;;;;;;;;;;4.00;99.90;;;;;;5058580;28;20326;-60
2022/01/07 04:12:16;;;;;;;;;;;4.00;99.90;;;;;;5056656;28;19923;-60
2022/01/07 04:14:41;;;;;;;;;;;3.90;99.90;;;;;;5056749;28;19921;-61
2022/01/07 04:17:07;;;;;;;;;;;4.00;99.90;;;;;;5057253;28;19920;-60
2022/01/07 04:19:33;;;;;;;;;;;4.00;99.90;;;;;;5057367;28;19958;-61
2022/01/07 04:21:59;;;;;;;;;;;4.10;99.90;;;;;;5058377;28;20019;-60
2022/01/07 04:24:24;;;;;;;;;;;4.30;99.90;;;;;;5043505;28;20019;-60
2022/01/07 04:26:50;;;;;;;;;;;4.30;99.90;;;;;;5057625;28;19987;-60
2022/01/07 04:29:16;;;;;;;;;;;4.20;99.90;;;;;;5055819;28;19950;-60
2022/01/07 04:31:41;;;;;;;;;;;4.10;99.90;;;;;;5057326;28;19917;-60
2022/01/07 04:34:07;;;;;;;;;;;4.00;99.90;;;;;;5057079;28;20413;-61
2022/01/07 04:36:32;;;;;;;;;;;4.00;99.90;;;;;;5058216;28;19917;-60
2022/01/07 04:38:58;;;;;;;;;;;4.10;99.90;;;;;;5045995;28;19919;-60
2022/01/07 04:41:23;;;;;;;;;;;4.00;99.90;;;;;;5057097;28;19916;-60
2022/01/07 04:43:49;;;;;;;;;;;4.00;99.90;;;;;;5058223;28;19967;-60
2022/01/07 04:46:14;;;;;;;;;;;3.90;99.90;;;;;;5056643;28;19921;-60
2022/01/07 04:48:40;;;;;;;;;;;3.90;99.90;;;;;;5057549;28;20003;-60
2022/01/07 04:51:05;;;;;;;;;;;4.00;99.90;;;;;;5058251;28;19963;-60
2022/01/07 04:53:31;;;;;;;;;;;4.00;99.90;;;;;;5058033;28;19917;-60
2022/01/07 04:55:58;;;;;;;;;;;4.00;99.90;;;;;;5056725;28;19977;-60
2022/01/07 04:58:24;;;;;;;;;;;4.00;99.90;;;;;;5045637;28;19919;-59
2022/01/07 05:00:49;;;;;;;;;;;4.00;99.90;;;;;;5058025;28;19917;-59
2022/01/07 05:03:15;;;;;;;;;;;3.90;99.90;;;;;;5056368;28;19924;-59
2022/01/07 05:05:43;;;;;;;;;;;3.90;99.90;;;;;;5057364;28;19939;-60
2022/01/07 05:08:09;;;;;;;;;;;4.00;99.90;;;;;;5055831;28;19924;-59
2022/01/07 05:10:36;;;;;;;;;;;3.90;99.90;;;;;;5054432;28;19916;-60
2022/01/07 05:13:02;;;;;;;;;;;3.90;99.90;;;;;;5046621;28;19923;-60
2022/01/07 05:15:27;;;;;;;;;;;3.90;99.90;;;;;;5057959;28;19920;-60
2022/01/07 05:17:53;;;;;;;;;;;3.90;99.90;;;;;;5056537;28;20870;-59
2022/01/07 05:20:19;;;;;;;;;;;3.80;99.90;;;;;;5056374;28;19916;-60
2022/01/07 05:22:44;;;;;;;;;;;3.90;99.90;;;;;;5057914;28;19917;-59
2022/01/07 05:25:10;;;;;;;;;;;3.90;99.90;;;;;;5057049;28;20295;-60
2022/01/07 05:27:36;;;;;;;;;;;3.80;99.90;;;;;;5056788;28;19974;-60
2022/01/07 05:30:03;;;;;;;;;;;3.80;99.90;;;;;;5057413;28;20334;-60
2022/01/07 05:32:29;;;;;;;;;;;3.80;99.90;;;;;;5056354;28;19963;-59
2022/01/07 05:34:54;;;;;;;;;;;3.80;99.90;;;;;;5056625;28;19928;-60
2022/01/07 05:37:21;;;;;;;;;;;3.80;99.90;;;;;;5056423;28;21160;-58
2022/01/07 05:39:47;;;;;;;;;;;3.80;99.90;;;;;;5056825;28;19927;-59
2022/01/07 05:42:13;;;;;;;;;;;3.80;99.90;;;;;;5056948;28;19948;-60
2022/01/07 05:44:38;;;;;;;;;;;3.80;99.90;;;;;;5057721;28;19916;-60
2022/01/07 05:47:04;;;;;;;;;;;3.70;99.90;;;;;;5057195;28;19924;-59
2022/01/07 05:49:29;;;;;;;;;;;3.70;99.90;;;;;;5057336;28;20103;-60
2022/01/07 05:51:55;;;;;;;;;;;3.80;99.90;;;;;;5055835;28;19990;-59
2022/01/07 05:54:20;;;;;;;;;;;3.60;99.90;;;;;;5057059;28;19927;-60
2022/01/07 05:56:46;;;;;;;;;;;3.70;99.90;;;;;;5056765;28;19923;-60
2022/01/07 05:59:11;;;;;;;;;;;3.70;99.90;;;;;;5057214;28;20318;-59
2022/01/07 06:01:37;;;;;;;;;;;3.80;99.90;;;;;;5044743;28;19920;-59
2022/01/07 06:04:02;;;;;;;;;;;3.80;99.90;;;;;;5056527;28;20680;-59
2022/01/07 06:06:27;;;;;;;;;;;3.90;99.90;;;;;;5056826;28;19916;-60
2022/01/07 06:08:53;;;;;;;;;;;3.80;99.90;;;;;;5057139;28;19916;-59
2022/01/07 06:11:18;;;;;;;;;;;3.80;99.90;;;;;;5055522;28;19917;-60
2022/01/07 06:13:44;;;;;;;;;;;3.90;99.90;;;;;;5056731;28;19912;-60
2022/01/07 06:16:09;;;;;;;;;;;3.80;99.90;;;;;;5056196;28;20322;-59
2022/01/07 06:18:39;;;;;;;;;;;3.80;99.90;;;;;;5055364;28;20078;-59
2022/01/07 06:21:05;;;;;;;;;;;3.80;99.90;;;;;;5056350;28;19913;-59
2022/01/07 06:23:30;;;;;;;;;;;3.80;99.90;;;;;;5058799;28;20403;-60
2022/01/07 06:25:56;;;;;;;;;;;3.90;99.90;;;;;;5060260;28;19923;-60
2022/01/07 06:28:22;;;;;;;;;;;4.00;99.90;;;;;;5059645;28;20049;-60
2022/01/07 06:30:47;;;;;;;;;;;3.90;99.90;;;;;;5061268;28;19931;-60
2022/01/07 06:33:13;;;;;;;;;;;4.00;99.90;;;;;;5059349;28;19929;-60
2022/01/07 06:35:38;;;;;;;;;;;3.90;99.90;;;;;;5059404;28;19955;-60
2022/01/07 06:38:04;;;;;;;;;;;4.00;99.90;;;;;;5060403;28;19920;-59
2022/01/07 06:40:29;;;;;;;;;;;4.20;99.90;;;;;;5061333;28;19928;-60
2022/01/07 06:42:55;;;;;;;;;;;4.10;99.90;;;;;;5061505;28;19935;-59
2022/01/07 06:45:21;;;;;;;;;;;4.60;99.90;;;;;;5040408;28;20315;-59
2022/01/07 06:47:46;;;;;;;;;;;4.20;99.90;;;;;;5058723;28;19984;-59
2022/01/07 06:50:12;;;;;;;;;;;4.10;99.90;;;;;;5063379;28;20622;-60
2022/01/07 06:52:38;;;;;;;;;;;4.10;99.90;;;;;;5064802;28;19921;-60
2022/01/07 06:55:04;;;;;;;;;;;4.10;99.90;;;;;;5046965;28;19916;-60
2022/01/07 06:57:29;;;;;;;;;;;4.40;99.90;;;;;;5063669;28;19920;-60
2022/01/07 06:59:55;;;;;;;;;;;4.30;99.90;;;;;;5058299;28;20350;-61
2022/01/07 07:02:20;;;;;;;;;;;4.30;99.90;;;;;;5056122;28;19917;-60
2022/01/07 07:04:46;;;;;;;;;;;4.20;99.90;;;;;;5060177;28;19913;-60
2022/01/07 07:07:13;;;;;;;;;;;4.30;99.90;;;;;;5060486;28;20303;-60
2022/01/07 07:09:38;;;;;;;;;;;4.50;99.90;;;;;;5061402;28;20004;-59
2022/01/07 07:12:04;;;;;;;;;;;4.40;99.90;;;;;;5061229;28;20007;-60
2022/01/07 07:14:29;;;;;;;;;;;4.50;99.90;;;;;;5064323;28;19920;-62
2022/01/07 07:16:55;;;;;;;;;;;4.40;99.90;;;;;;5045619;28;19916;-62
2022/01/07 07:19:22;;;;;;;;;;;4.50;99.90;;;;;;5048414;28;20323;-61
2022/01/07 07:21:48;;;;;;;;;;;4.60;99.90;;;;;;5044628;28;19916;-62
2022/01/07 07:24:13;;;;;;;;;;;4.50;99.90;;;;;;5058075;28;19916;-62
2022/01/07 07:26:39;;;;;;;;;;;4.60;99.90;;;;;;5054979;28;19927;-62
2022/01/07 07:29:04;;;;;;;;;;;4.50;99.90;;;;;;5058308;28;20031;-61
2022/01/07 07:31:31;;;;;;;;;;;4.60;99.90;;;;;;5055114;28;20467;-61
2022/01/07 07:34:18;;;;;;;;;;;4.50;99.90;;;;;;5043375;28;20030;-62
2022/01/07 07:36:44;;;;;;;;;;;4.50;99.90;;;;;;5055388;28;20611;-62
2022/01/07 07:39:10;;;;;;;;;;;4.50;99.90;;;;;;5054932;28;19924;-62
2022/01/07 07:41:37;;;;;;;;;;;4.50;99.90;;;;;;5051849;28;19947;-62
2022/01/07 07:44:03;;;;;;;;;;;4.50;99.90;;;;;;5062485;28;19947;-62
2022/01/07 07:46:30;;;;;;;;;;;4.60;99.90;;;;;;5059292;28;20015;-62
2022/01/07 07:48:56;;;;;;;;;;;4.70;99.90;;;;;;5059597;28;20326;-62
2022/01/07 07:51:22;;;;;;;;;;;4.70;99.90;;;;;;5050641;28;19920;-61
2022/01/07 07:53:47;;;;;;;;;;;4.70;99.90;;;;;;5060512;28;19961;-62
2022/01/07 07:56:14;;;;;;;;;;;4.70;99.90;;;;;;5063327;28;19912;-62
2022/01/07 07:58:40;;;;;;;;;;;4.70;99.90;;;;;;5058247;28;19920;-61
2022/01/07 08:01:06;;;;;;;;;;;4.60;99.90;;;;;;5061205;28;20428;-62
2022/01/07 08:03:31;;;;;;;;;;;4.70;99.90;;;;;;5043955;28;19931;-62
2022/01/07 08:05:56;;;;;;;;;;;4.60;99.90;;;;;;5047841;28;19920;-61
2022/01/07 08:08:22;;;;;;;;;;;4.70;99.90;;;;;;5061088;28;19946;-64
2022/01/07 08:10:51;;;;;;;;;;;4.70;99.90;;;;;;5054562;28;19924;-62
2022/01/07 08:13:28;;;;;;;;;;;4.80;99.90;;;;;;5054248;28;20388;-61
2022/01/07 08:16:02;;;;;;;;;;;4.80;99.90;;;;;;5056692;28;20506;-62
2022/01/07 08:18:35;;;;;;;;;;;4.80;99.90;;;;;;5057666;28;19920;-61
2022/01/07 08:21:10;;;;;;;;;;;4.90;99.90;;;;;;5058051;28;20160;-61
2022/01/07 08:23:37;;;;;;;;;;;4.80;99.90;;;;;;5057699;28;19916;-62
2022/01/07 08:26:04;;;;;;;;;;;4.80;99.90;;;;;;5057708;28;19952;-62
2022/01/07 08:28:39;;;;;;;;;;;4.90;99.90;;;;;;5055258;28;20119;-62
2022/01/07 08:36:15;;;;;;;;;;;4.90;99.90;;;;;;5056439;28;19919;-61
2022/01/07 08:38:40;;;;;;;;;;;4.90;99.90;;;;;;5046987;28;19916;-61
2022/01/07 08:41:06;;;;;;;;;;;4.90;99.90;;;;;;5057799;28;19924;-62
2022/01/07 08:43:32;;;;;;;;;;;5.00;99.90;;;;;;5058735;28;19913;-61
2022/01/07 08:45:57;;;;;;;;;;;5.00;99.90;;;;;;5056759;28;19995;-61
2022/01/07 08:48:25;;;;;;;;;;;4.90;99.90;;;;;;5056780;28;19912;-61
2022/01/07 08:50:50;;;;;;;;;;;4.90;99.90;;;;;;5056613;28;20007;-61
2022/01/07 08:53:16;;;;;;;;;;;4.90;99.90;;;;;;5057838;28;20411;-62
2022/01/07 08:55:41;;;;;;;;;;;4.90;99.90;;;;;;5057203;28;19943;-61
2022/01/07 08:58:07;;;;;;;;;;;5.00;99.90;;;;;;5056352;28;20261;-62
2022/01/07 09:00:32;;;;;;;;;;;5.00;99.90;;;;;;5057463;28;19916;-61
2022/01/07 09:02:58;;;;;;;;;;;5.00;99.90;;;;;;5058110;28;19982;-61
2022/01/07 09:05:24;;;;;;;;;;;5.00;99.90;;;;;;5056060;28;20333;-61
2022/01/07 09:07:49;;;;;;;;;;;5.00;99.90;;;;;;5056781;28;19920;-61
2022/01/07 09:10:15;;;;;;;;;;;5.00;99.90;;;;;;5055495;28;19946;-62
2022/01/07 09:12:40;;;;;;;;;;;5.00;99.90;;;;;;5054916;28;20330;-61
2022/01/07 09:15:06;;;;;;;;;;;5.10;99.90;;;;;;5057225;28;19952;-61
2022/01/07 09:17:32;;;;;;;;;;;5.10;99.90;;;;;;5042745;28;20394;-62
2022/01/07 09:20:01;;;;;;;;;;;5.20;99.90;;;;;;5056266;28;19997;-62
2022/01/07 09:22:26;;;;;;;;;;;5.10;99.90;;;;;;5055832;28;20112;-61
2022/01/07 09:24:52;;;;;;;;;;;5.10;99.90;;;;;;5057440;28;20311;-62
2022/01/07 09:27:17;;;;;;;;;;;5.10;99.90;;;;;;5055767;28;19943;-61
2022/01/07 09:29:43;;;;;;;;;;;5.20;99.90;;;;;;5046387;28;20019;-61
2022/01/07 09:32:08;;;;;;;;;;;5.20;99.90;;;;;;5056051;28;20024;-62
2022/01/07 09:34:35;;;;;;;;;;;5.20;99.90;;;;;;5054104;28;20368;-61
2022/01/07 09:37:02;;;;;;;;;;;5.20;99.90;;;;;;5054069;28;20514;-62
2022/01/07 09:39:28;;;;;;;;;;;5.20;99.90;;;;;;5061474;28;20308;-62
2022/01/07 09:41:53;;;;;;;;;;;5.20;99.90;;;;;;5055451;28;19920;-61
2022/01/07 09:44:19;;;;;;;;;;;5.30;99.90;;;;;;5053619;28;20354;-61
2022/01/07 09:46:44;;;;;;;;;;;5.30;99.90;;;;;;5055717;28;20232;-61
2022/01/07 09:49:10;;;;;;;;;;;5.40;99.90;;;;;;5056020;28;20011;-62
2022/01/07 09:51:39;;;;;;;;;;;5.50;99.90;;;;;;5056065;28;19943;-62
2022/01/07 09:54:06;;;;;;;;;;;5.40;99.90;;;;;;5055734;28;19920;-62
2022/01/07 09:56:31;;;;;;;;;;;5.50;99.90;;;;;;5044021;28;19954;-61
2022/01/07 09:58:57;;;;;;;;;;;5.50;99.90;;;;;;5056284;28;20323;-61
2022/01/07 10:01:25;;;;;;;;;;;5.60;99.90;;;;;;5055289;28;19925;-62
2022/01/07 10:03:50;;;;;;;;;;;5.50;99.90;;;;;;5055026;28;20283;-61
2022/01/07 10:06:18;;;;;;;;;;;5.50;99.90;;;;;;5046866;28;19917;-62
2022/01/07 10:08:43;;;;;;;;;;;5.60;99.90;;;;;;5055889;28;20019;-62
2022/01/07 10:11:09;;;;;;;;;;;5.60;99.90;;;;;;5055356;28;20015;-61
2022/01/07 10:13:34;;;;;;;;;;;5.60;99.90;;;;;;5055543;28;19913;-61
2022/01/07 10:16:11;;;;;;;;;;;5.60;99.90;;;;;;5057169;28;19917;-62
2022/01/07 10:18:40;;;;;;;;;;;5.60;99.90;;;;;;5043080;28;19978;-61
2022/01/07 10:21:09;;;;;;;;;;;5.60;99.90;;;;;;5056865;28;20015;-62
2022/01/07 10:23:35;;;;;;;;;;;5.60;99.90;;;;;;5057154;28;19982;-62
2022/01/07 10:26:00;;;;;;;;;;;5.60;99.90;;;;;;5060750;28;20029;-61
2022/01/07 10:28:30;;;;;;;;;;;5.60;99.90;;;;;;5059534;28;19920;-61
2022/01/07 10:30:55;;;;;;;;;;;5.60;99.90;;;;;;5059847;28;19943;-62
2022/01/07 10:33:24;;;;;;;;;;;5.70;99.90;;;;;;5058689;28;19925;-62
2022/01/07 10:35:56;;;;;;;;;;;5.70;99.90;;;;;;5060217;28;20318;-62
2022/01/07 10:38:23;;;;;;;;;;;5.70;99.90;;;;;;5046628;28;19928;-61
2022/01/07 10:40:50;;;;;;;;;;;5.70;99.90;;;;;;5058911;28;19912;-62
2022/01/07 10:43:18;;;;;;;;;;;5.70;99.90;;;;;;5060006;28;20356;-62
2022/01/07 10:45:48;;;;;;;;;;;5.70;99.90;;;;;;5059748;28;20588;-61
2022/01/07 10:48:14;;;;;;;;;;;5.70;99.90;;;;;;5057368;28;19919;-61
2022/01/07 10:50:47;;;;;;;;;;;5.60;99.90;;;;;;5059374;28;20382;-61
2022/01/07 10:53:14;;;;;;;;;;;5.60;99.90;;;;;;5057954;28;19916;-62
2022/01/07 10:55:39;;;;;;;;;;;5.70;99.90;;;;;;5057743;28;20506;-62
2022/01/07 10:58:05;;;;;;;;;;;5.80;99.90;;;;;;5044905;28;19913;-62
2022/01/07 11:00:35;;;;;;;;;;;5.90;99.90;;;;;;5060089;28;19927;-62
2022/01/07 11:03:01;;;;;;;;;;;5.80;99.90;;;;;;5058881;28;20093;-61
2022/01/07 11:05:26;;;;;;;;;;;5.90;99.90;;;;;;5059304;28;19959;-61
2022/01/07 11:07:54;;;;;;;;;;;6.00;99.90;;;;;;5048257;28;19916;-62
2022/01/07 11:10:19;;;;;;;;;;;6.00;99.90;;;;;;5056080;28;20402;-61
2022/01/07 11:12:45;;;;;;;;;;;6.00;99.90;;;;;;5058488;28;19991;-61
2022/01/07 11:15:11;;;;;;;;;;;6.10;99.90;;;;;;5059347;28;20644;-61
2022/01/07 11:17:37;;;;;;;;;;;6.10;99.90;;;;;;5057620;28;19920;-62
2022/01/07 11:20:05;;;;;;;;;;;6.00;99.90;;;;;;5059525;28;20006;-61
2022/01/07 11:22:31;;;;;;;;;;;6.10;99.90;;;;;;5058019;28;19926;-62
2022/01/07 11:24:56;;;;;;;;;;;6.00;99.90;;;;;;5046798;28;20012;-61
2022/01/07 11:27:26;;;;;;;;;;;6.00;99.90;;;;;;5058809;28;19947;-61
2022/01/07 11:29:53;;;;;;;;;;;6.20;99.90;;;;;;5058407;28;19966;-61
2022/01/07 11:32:25;;;;;;;;;;;6.10;99.90;;;;;;5056735;28;19943;-61
2022/01/07 11:34:54;;;;;;;;;;;6.10;99.90;;;;;;5058222;28;20216;-61
2022/01/07 11:37:33;;;;;;;;;;;6.10;99.90;;;;;;5059715;28;20023;-60
2022/01/07 11:39:58;;;;;;;;;;;6.10;99.90;;;;;;5063645;28;19924;-61
2022/01/07 11:42:40;;;;;;;;;;;6.00;99.90;;;;;;5062140;28;19931;-61
2022/01/07 11:45:32;;;;;;;;;;;6.00;99.90;;;;;;5046166;28;20394;-61
2022/01/07 11:48:17;;;;;;;;;;;6.00;99.90;;;;;;5052363;28;20011;-62
2022/01/07 11:50:46;;;;;;;;;;;6.00;99.90;;;;;;5057780;28;20039;-61
2022/01/07 11:53:11;;;;;;;;;;;6.00;99.90;;;;;;5058569;28;19924;-61
2022/01/07 11:55:37;;;;;;;;;;;6.10;99.90;;;;;;5057189;28;19917;-61
2022/01/07 11:58:10;;;;;;;;;;;6.20;99.90;;;;;;5059101;28;19924;-61
2022/01/07 12:00:51;;;;;;;;;;;6.20;99.90;;;;;;5058623;28;20582;-60
2022/01/07 12:03:33;;;;;;;;;;;6.30;99.90;;;;;;5055786;28;19924;-61
2022/01/07 12:05:59;;;;;;;;;;;6.40;99.90;;;;;;5043665;28;20414;-61
2022/01/07 12:08:41;;;;;;;;;;;6.40;99.90;;;;;;5058486;28;19916;-61
2022/01/07 12:11:10;;;;;;;;;;;6.50;99.90;;;;;;5057387;28;20475;-62
2022/01/07 12:13:39;;;;;;;;;;;6.40;99.90;;;;;;5057397;28;19912;-61
2022/01/07 12:16:07;;;;;;;;;;;6.40;99.90;;;;;;5056749;28;19916;-61
2022/01/07 12:18:36;;;;;;;;;;;6.50;99.90;;;;;;5057546;28;19962;-62
2022/01/07 12:21:01;;;;;;;;;;;6.40;99.90;;;;;;5057867;28;19913;-62
2022/01/07 12:23:27;;;;;;;;;;;6.40;99.90;;;;;;5056613;28;19913;-61
2022/01/07 12:25:53;;;;;;;;;;;6.50;99.90;;;;;;5047289;28;19921;-61
2022/01/07 12:28:19;;;;;;;;;;;6.50;99.90;;;;;;5057161;28;20667;-61
2022/01/07 12:30:46;;;;;;;;;;;6.50;99.90;;;;;;5057795;28;19916;-61
2022/01/07 12:33:12;;;;;;;;;;;6.50;99.90;;;;;;5041338;28;19923;-62
2022/01/07 12:35:38;;;;;;;;;;;6.50;99.90;;;;;;5057391;28;20010;-60
2022/01/07 12:38:14;;;;;;;;;;;6.50;99.90;;;;;;5044312;28;20125;-60
2022/01/07 12:40:39;;;;;;;;;;;6.40;99.90;;;;;;5053489;28;20350;-60
2022/01/07 12:43:05;;;;;;;;;;;6.40;99.90;;;;;;5058719;28;20003;-60
2022/01/07 12:45:31;;;;;;;;;;;6.30;99.90;;;;;;5062716;28;19942;-60
2022/01/07 12:47:57;;;;;;;;;;;6.30;99.90;;;;;;5059493;28;19912;-61
2022/01/07 12:50:24;;;;;;;;;;;6.40;99.90;;;;;;5061565;28;20647;-61
2022/01/07 12:52:50;;;;;;;;;;;6.50;99.90;;;;;;5061538;28;19925;-60
2022/01/07 12:55:18;;;;;;;;;;;6.60;99.90;;;;;;5062105;28;20016;-61
2022/01/07 12:57:46;;;;;;;;;;;6.70;99.90;;;;;;5062162;28;20034;-61
2022/01/07 13:00:14;;;;;;;;;;;6.60;99.90;;;;;;5061618;28;19920;-61
2022/01/07 13:02:41;;;;;;;;;;;6.50;99.90;;;;;;5055620;28;20003;-61
2022/01/07 13:05:11;;;;;;;;;;;6.50;99.90;;;;;;5056659;28;19919;-61
2022/01/07 13:07:40;;;;;;;;;;;6.50;99.90;;;;;;5050885;28;19924;-60
2022/01/07 13:10:05;;;;;;;;;;;6.50;99.90;;;;;;5042158;28;19920;-61
2022/01/07 13:12:31;;;;;;;;;;;6.80;99.90;;;;;;5040699;28;19913;-61
2022/01/07 13:14:56;;;;;;;;;;;6.60;99.90;;;;;;5042096;28;19916;-61
2022/01/07 13:17:22;;;;;;;;;;;6.60;99.90;;;;;;5055789;28;20031;-61
2022/01/07 13:19:49;;;;;;;;;;;6.60;99.90;;;;;;5055280;28;19924;-61
2022/01/07 13:22:15;;;;;;;;;;;6.50;99.90;;;;;;5053295;28;19917;-60
2022/01/07 13:24:40;;;;;;;;;;;6.00;99.90;;;;;;5055669;28;20102;-60
2022/01/07 13:27:06;;;;;;;;;;;5.80;99.90;;;;;;5055407;28;20504;-60
2022/01/07 13:29:32;;;;;;;;;;;5.00;99.90;;;;;;5054572;28;19921;-61
2022/01/07 13:32:02;;;;;;;;;;;5.00;99.90;;;;;;5061320;28;19920;-61
2022/01/07 13:34:32;;;;;;;;;;;5.00;99.90;;;;;;5055902;28;20015;-61
2022/01/07 13:37:02;;;;;;;;;;;5.00;99.90;;;;;;5055251;28;19924;-61
2022/01/07 13:39:35;;;;;;;;;;;5.00;99.90;;;;;;5056279;28;19927;-62
2022/01/07 13:42:03;;;;;;;;;;;5.00;99.90;;;;;;5044493;28;19973;-60
2022/01/07 13:44:29;;;;;;;;;;;5.10;99.90;;;;;;5056880;28;19924;-60
2022/01/07 13:46:56;;;;;;;;;;;5.10;99.90;;;;;;5056551;28;19917;-61
2022/01/07 13:49:22;;;;;;;;;;;5.20;99.90;;;;;;5044152;28;20292;-61
2022/01/07 13:52:05;;;;;;;;;;;5.30;99.90;;;;;;5054791;28;19928;-61
2022/01/07 13:54:38;;;;;;;;;;;5.30;99.90;;;;;;5054901;28;19955;-60
2022/01/07 13:57:05;;;;;;;;;;;5.40;99.90;;;;;;5055889;28;19916;-61
2022/01/07 13:59:46;;;;;;;;;;;5.50;99.90;;;;;;5047594;28;19928;-62
2022/01/07 14:02:31;;;;;;;;;;;5.60;99.90;;;;;;5063816;28;20232;-61
2022/01/07 14:04:58;;;;;;;;;;;5.50;99.90;;;;;;5063639;28;19920;-61
2022/01/07 14:07:33;;;;;;;;;;;5.50;99.90;;;;;;5059706;28;20447;-61
2022/01/07 14:09:59;;;;;;;;;;;5.50;99.90;;;;;;5050762;28;19920;-61
2022/01/07 14:12:24;;;;;;;;;;;5.50;99.90;;;;;;5048423;28;19969;-61
2022/01/07 14:14:50;;;;;;;;;;;5.60;99.90;;;;;;5063305;28;20021;-61
2022/01/07 14:17:15;;;;;;;;;;;5.60;99.90;;;;;;5065105;28;19931;-62
2022/01/07 14:19:57;;;;;;;;;;;5.60;99.90;;;;;;5064375;28;19923;-62
2022/01/07 14:22:22;;;;;;;;;;;5.50;99.90;;;;;;5052051;28;20371;-61
2022/01/07 14:24:48;;;;;;;;;;;5.40;99.90;;;;;;5062616;28;19921;-61
2022/01/07 14:27:30;;;;;;;;;;;5.40;99.90;;;;;;5064035;28;19928;-61
2022/01/07 14:29:56;;;;;;;;;;;5.50;99.90;;;;;;5062597;28;20336;-62
2022/01/07 14:32:23;;;;;;;;;;;5.50;99.90;;;;;;5046651;28;19952;-62
2022/01/07 14:34:48;;;;;;;;;;;5.50;99.90;;;;;;5060474;28;19920;-62